sensor_id;sensor_type;location;lat;lon;timestamp;temperature;humidity
30244;DHT22;64022;53.652;9.792;2023-10-13T00:01:22;22.60;65.70
30244;DHT22;64022;53.652;9.792;2023-10-13T00:03:47;22.60;65.70
30244;DHT22;64022;53.652;9.792;2023-10-13T00:06:13;22.60;65.70
30244;DHT22;64022;53.652;9.792;2023-10-13T00:08:38;22.60;65.70
30244;DHT22;64022;53.652;9.792;2023-10-13T00:11:05;22.60;65.70
30244;DHT22;64022;53.652;9.792;2023-10-13T00:13:31;22.60;65.80
30244;DHT22;64022;53.652;9.792;2023-10-13T00:16:15;22.60;65.80
30244;DHT22;64022;53.652;9.792;2023-10-13T00:18:47;22.60;65.80
30244;DHT22;64022;53.652;9.792;2023-10-13T00:21:13;22.60;65.80
30244;DHT22;64022;53.652;9.792;2023-10-13T00:23:39;22.60;65.80
30244;DHT22;64022;53.652;9.792;2023-10-13T00:26:08;22.60;65.80
30244;DHT22;64022;53.652;9.792;2023-10-13T00:28:34;22.60;65.80
30244;DHT22;64022;53.652;9.792;2023-10-13T00:31:12;22.60;65.90
30244;DHT22;64022;53.652;9.792;2023-10-13T00:33:42;22.60;65.80
30244;DHT22;64022;53.652;9.792;2023-10-13T00:36:07;22.60;65.80
30244;DHT22;64022;53.652;9.792;2023-10-13T00:38:34;22.60;65.80
30244;DHT22;64022;53.652;9.792;2023-10-13T00:41:00;22.60;65.80
30244;DHT22;64022;53.652;9.792;2023-10-13T00:43:46;22.60;65.80
30244;DHT22;64022;53.652;9.792;2023-10-13T00:46:30;22.60;65.90
30244;DHT22;64022;53.652;9.792;2023-10-13T00:48:58;22.60;65.80
30244;DHT22;64022;53.652;9.792;2023-10-13T00:51:24;22.60;65.80
30244;DHT22;64022;53.652;9.792;2023-10-13T00:54:06;22.60;65.90
30244;DHT22;64022;53.652;9.792;2023-10-13T00:56:41;22.60;65.90
30244;DHT22;64022;53.652;9.792;2023-10-13T00:59:12;22.60;65.80
30244;DHT22;64022;53.652;9.792;2023-10-13T01:01:39;22.60;65.90
30244;DHT22;64022;53.652;9.792;2023-10-13T01:04:08;22.60;65.90
30244;DHT22;64022;53.652;9.792;2023-10-13T01:06:33;22.60;65.90
30244;DHT22;64022;53.652;9.792;2023-10-13T01:09:03;22.60;65.90
30244;DHT22;64022;53.652;9.792;2023-10-13T01:11:55;22.50;65.80
30244;DHT22;64022;53.652;9.792;2023-10-13T01:14:21;22.60;65.90
30244;DHT22;64022;53.652;9.792;2023-10-13T01:16:47;22.50;65.80
30244;DHT22;64022;53.652;9.792;2023-10-13T01:19:16;22.60;65.90
30244;DHT22;64022;53.652;9.792;2023-10-13T01:21:47;22.60;65.90
30244;DHT22;64022;53.652;9.792;2023-10-13T01:24:13;22.50;65.90
30244;DHT22;64022;53.652;9.792;2023-10-13T01:26:38;22.60;65.90
30244;DHT22;64022;53.652;9.792;2023-10-13T01:29:07;22.60;65.90
30244;DHT22;64022;53.652;9.792;2023-10-13T01:31:37;22.50;65.90
30244;DHT22;64022;53.652;9.792;2023-10-13T01:34:03;22.60;66.00
30244;DHT22;64022;53.652;9.792;2023-10-13T01:36:28;22.50;65.90
30244;DHT22;64022;53.652;9.792;2023-10-13T01:39:00;22.60;65.90
30244;DHT22;64022;53.652;9.792;2023-10-13T01:41:26;22.60;66.00
30244;DHT22;64022;53.652;9.792;2023-10-13T01:43:52;22.60;66.00
30244;DHT22;64022;53.652;9.792;2023-10-13T01:46:17;22.50;65.90
30244;DHT22;64022;53.652;9.792;2023-10-13T01:48:47;22.50;65.90
30244;DHT22;64022;53.652;9.792;2023-10-13T01:51:12;22.50;65.90
30244;DHT22;64022;53.652;9.792;2023-10-13T01:53:38;22.60;66.00
30244;DHT22;64022;53.652;9.792;2023-10-13T01:56:07;22.50;66.00
30244;DHT22;64022;53.652;9.792;2023-10-13T01:58:36;22.50;66.00
30244;DHT22;64022;53.652;9.792;2023-10-13T02:01:02;22.50;66.00
30244;DHT22;64022;53.652;9.792;2023-10-13T02:03:32;22.50;66.00
30244;DHT22;64022;53.652;9.792;2023-10-13T02:05:58;22.50;66.00
30244;DHT22;64022;53.652;9.792;2023-10-13T02:08:30;22.50;66.00
30244;DHT22;64022;53.652;9.792;2023-10-13T02:10:56;22.50;66.00
30244;DHT22;64022;53.652;9.792;2023-10-13T02:13:22;22.50;66.00
30244;DHT22;64022;53.652;9.792;2023-10-13T02:15:48;22.60;66.10
30244;DHT22;64022;53.652;9.792;2023-10-13T02:18:17;22.50;66.00
30244;DHT22;64022;53.652;9.792;2023-10-13T02:20:48;22.50;66.00
30244;DHT22;64022;53.652;9.792;2023-10-13T02:23:23;22.50;66.00
30244;DHT22;64022;53.652;9.792;2023-10-13T02:25:50;22.50;66.00
30244;DHT22;64022;53.652;9.792;2023-10-13T02:28:26;22.50;66.00
30244;DHT22;64022;53.652;9.792;2023-10-13T02:30:54;22.50;66.10
30244;DHT22;64022;53.652;9.792;2023-10-13T02:33:19;22.50;66.10
30244;DHT22;64022;53.652;9.792;2023-10-13T02:35:49;22.50;66.10
30244;DHT22;64022;53.652;9.792;2023-10-13T02:38:22;22.50;66.10
30244;DHT22;64022;53.652;9.792;2023-10-13T02:41:02;22.50;66.10
30244;DHT22;64022;53.652;9.792;2023-10-13T02:43:34;22.50;66.10
30244;DHT22;64022;53.652;9.792;2023-10-13T02:46:00;22.50;66.10
30244;DHT22;64022;53.652;9.792;2023-10-13T02:48:26;22.50;66.10
30244;DHT22;64022;53.652;9.792;2023-10-13T02:50:56;22.50;66.10
30244;DHT22;64022;53.652;9.792;2023-10-13T02:53:22;22.50;66.10
30244;DHT22;64022;53.652;9.792;2023-10-13T02:55:49;22.50;66.10
30244;DHT22;64022;53.652;9.792;2023-10-13T02:58:15;22.50;66.20
30244;DHT22;64022;53.652;9.792;2023-10-13T03:00:40;22.50;66.20
30244;DHT22;64022;53.652;9.792;2023-10-13T03:03:06;22.50;66.20
30244;DHT22;64022;53.652;9.792;2023-10-13T03:05:34;22.50;66.20
30244;DHT22;64022;53.652;9.792;2023-10-13T03:08:00;22.50;66.20
30244;DHT22;64022;53.652;9.792;2023-10-13T03:10:29;22.50;66.20
30244;DHT22;64022;53.652;9.792;2023-10-13T03:12:54;22.50;66.20
30244;DHT22;64022;53.652;9.792;2023-10-13T03:15:20;22.50;66.20
30244;DHT22;64022;53.652;9.792;2023-10-13T03:17:54;22.50;66.20
30244;DHT22;64022;53.652;9.792;2023-10-13T03:20:20;22.50;66.20
30244;DHT22;64022;53.652;9.792;2023-10-13T03:22:55;22.50;66.20
30244;DHT22;64022;53.652;9.792;2023-10-13T03:25:21;22.50;66.20
30244;DHT22;64022;53.652;9.792;2023-10-13T03:27:54;22.50;66.20
30244;DHT22;64022;53.652;9.792;2023-10-13T03:30:20;22.50;66.20
30244;DHT22;64022;53.652;9.792;2023-10-13T03:32:47;22.50;66.70
30244;DHT22;64022;53.652;9.792;2023-10-13T03:35:19;22.50;66.20
30244;DHT22;64022;53.652;9.792;2023-10-13T03:37:51;22.50;66.20
30244;DHT22;64022;53.652;9.792;2023-10-13T03:40:16;22.50;66.20
30244;DHT22;64022;53.652;9.792;2023-10-13T03:42:45;22.50;66.20
30244;DHT22;64022;53.652;9.792;2023-10-13T03:45:23;22.50;66.20
30244;DHT22;64022;53.652;9.792;2023-10-13T03:47:50;22.50;66.20
30244;DHT22;64022;53.652;9.792;2023-10-13T03:50:17;22.50;66.20
30244;DHT22;64022;53.652;9.792;2023-10-13T03:52:54;22.50;66.30
30244;DHT22;64022;53.652;9.792;2023-10-13T03:55:23;22.50;66.30
30244;DHT22;64022;53.652;9.792;2023-10-13T03:57:52;22.50;66.30
30244;DHT22;64022;53.652;9.792;2023-10-13T04:00:17;22.50;66.30
30244;DHT22;64022;53.652;9.792;2023-10-13T04:02:48;22.50;66.30
30244;DHT22;64022;53.652;9.792;2023-10-13T04:05:29;22.50;66.30
30244;DHT22;64022;53.652;9.792;2023-10-13T04:08:03;22.50;66.30
30244;DHT22;64022;53.652;9.792;2023-10-13T04:10:47;22.50;66.40
30244;DHT22;64022;53.652;9.792;2023-10-13T04:13:19;22.50;66.40
30244;DHT22;64022;53.652;9.792;2023-10-13T04:16:04;22.50;66.40
30244;DHT22;64022;53.652;9.792;2023-10-13T04:18:51;22.50;66.50
30244;DHT22;64022;53.652;9.792;2023-10-13T04:21:25;22.50;66.50
30244;DHT22;64022;53.652;9.792;2023-10-13T04:24:04;22.50;66.50
30244;DHT22;64022;53.652;9.792;2023-10-13T04:26:49;22.50;66.50
30244;DHT22;64022;53.652;9.792;2023-10-13T04:29:33;22.50;66.50
30244;DHT22;64022;53.652;9.792;2023-10-13T04:32:31;22.50;66.50
30244;DHT22;64022;53.652;9.792;2023-10-13T04:35:04;22.50;66.50
30244;DHT22;64022;53.652;9.792;2023-10-13T04:37:43;22.50;66.50
30244;DHT22;64022;53.652;9.792;2023-10-13T04:40:40;22.50;66.50
30244;DHT22;64022;53.652;9.792;2023-10-13T04:43:15;22.50;66.60
30244;DHT22;64022;53.652;9.792;2023-10-13T04:45:59;22.50;66.60
30244;DHT22;64022;53.652;9.792;2023-10-13T04:48:39;22.50;66.60
30244;DHT22;64022;53.652;9.792;2023-10-13T04:51:05;22.50;66.70
30244;DHT22;64022;53.652;9.792;2023-10-13T04:54:09;22.50;66.60
30244;DHT22;64022;53.652;9.792;2023-10-13T04:56:49;22.50;66.70
30244;DHT22;64022;53.652;9.792;2023-10-13T04:59:25;22.50;66.70
30244;DHT22;64022;53.652;9.792;2023-10-13T05:02:09;22.50;66.70
30244;DHT22;64022;53.652;9.792;2023-10-13T05:04:53;22.50;66.70
30244;DHT22;64022;53.652;9.792;2023-10-13T05:07:31;22.50;66.70
30244;DHT22;64022;53.652;9.792;2023-10-13T05:10:15;22.50;66.70
30244;DHT22;64022;53.652;9.792;2023-10-13T05:12:59;22.50;66.80
30244;DHT22;64022;53.652;9.792;2023-10-13T05:15:47;22.50;66.80
30244;DHT22;64022;53.652;9.792;2023-10-13T05:18:31;22.50;66.80
30244;DHT22;64022;53.652;9.792;2023-10-13T05:21:16;22.50;66.80
30244;DHT22;64022;53.652;9.792;2023-10-13T05:23:59;22.50;66.80
30244;DHT22;64022;53.652;9.792;2023-10-13T05:26:44;22.50;66.80
30244;DHT22;64022;53.652;9.792;2023-10-13T05:29:28;22.50;66.80
30244;DHT22;64022;53.652;9.792;2023-10-13T05:32:12;22.50;66.90
30244;DHT22;64022;53.652;9.792;2023-10-13T05:34:56;22.50;66.90
30244;DHT22;64022;53.652;9.792;2023-10-13T05:37:40;22.50;66.90
30244;DHT22;64022;53.652;9.792;2023-10-13T05:40:24;22.50;66.90
30244;DHT22;64022;53.652;9.792;2023-10-13T05:43:08;22.50;66.90
30244;DHT22;64022;53.652;9.792;2023-10-13T05:45:53;22.50;66.90
30244;DHT22;64022;53.652;9.792;2023-10-13T05:48:47;22.50;66.90
30244;DHT22;64022;53.652;9.792;2023-10-13T05:54:09;22.50;66.90
30244;DHT22;64022;53.652;9.792;2023-10-13T05:56:45;22.50;66.90
30244;DHT22;64022;53.652;9.792;2023-10-13T05:59:29;22.50;66.90
30244;DHT22;64022;53.652;9.792;2023-10-13T06:02:17;22.50;66.90
30244;DHT22;64022;53.652;9.792;2023-10-13T06:05:02;22.60;67.00
30244;DHT22;64022;53.652;9.792;2023-10-13T06:07:46;22.50;66.90
30244;DHT22;64022;53.652;9.792;2023-10-13T06:10:30;22.50;66.90
30244;DHT22;64022;53.652;9.792;2023-10-13T06:13:14;22.50;66.90
30244;DHT22;64022;53.652;9.792;2023-10-13T06:15:58;22.50;66.90
30244;DHT22;64022;53.652;9.792;2023-10-13T06:18:43;22.50;67.00
30244;DHT22;64022;53.652;9.792;2023-10-13T06:21:27;22.50;67.00
30244;DHT22;64022;53.652;9.792;2023-10-13T06:24:11;22.50;67.00
30244;DHT22;64022;53.652;9.792;2023-10-13T06:26:55;22.50;67.00
30244;DHT22;64022;53.652;9.792;2023-10-13T06:29:40;22.60;67.10
30244;DHT22;64022;53.652;9.792;2023-10-13T06:32:06;22.50;67.00
30244;DHT22;64022;53.652;9.792;2023-10-13T06:34:36;22.50;67.00
30244;DHT22;64022;53.652;9.792;2023-10-13T06:37:11;22.50;67.00
30244;DHT22;64022;53.652;9.792;2023-10-13T06:39:56;22.50;67.00
30244;DHT22;64022;53.652;9.792;2023-10-13T06:42:28;22.50;67.00
30244;DHT22;64022;53.652;9.792;2023-10-13T06:44:57;22.60;67.20
30244;DHT22;64022;53.652;9.792;2023-10-13T06:47:25;22.60;67.10
30244;DHT22;64022;53.652;9.792;2023-10-13T06:49:53;22.60;67.10
30244;DHT22;64022;53.652;9.792;2023-10-13T06:52:20;22.60;67.20
30244;DHT22;64022;53.652;9.792;2023-10-13T06:54:50;22.60;67.20
30244;DHT22;64022;53.652;9.792;2023-10-13T06:57:16;22.60;67.20
30244;DHT22;64022;53.652;9.792;2023-10-13T06:59:46;22.60;67.20
30244;DHT22;64022;53.652;9.792;2023-10-13T07:02:11;22.60;67.20
30244;DHT22;64022;53.652;9.792;2023-10-13T07:04:49;22.60;67.20
30244;DHT22;64022;53.652;9.792;2023-10-13T07:07:22;22.60;67.20
30244;DHT22;64022;53.652;9.792;2023-10-13T07:09:49;22.60;67.20
30244;DHT22;64022;53.652;9.792;2023-10-13T07:12:20;22.60;67.20
30244;DHT22;64022;53.652;9.792;2023-10-13T07:14:51;22.60;67.20
30244;DHT22;64022;53.652;9.792;2023-10-13T07:17:17;22.60;67.30
30244;DHT22;64022;53.652;9.792;2023-10-13T07:19:52;22.60;67.30
30244;DHT22;64022;53.652;9.792;2023-10-13T07:22:40;22.70;67.40
30244;DHT22;64022;53.652;9.792;2023-10-13T07:25:05;22.60;67.30
30244;DHT22;64022;53.652;9.792;2023-10-13T07:27:32;22.60;67.40
30244;DHT22;64022;53.652;9.792;2023-10-13T07:30:00;22.60;67.30
30244;DHT22;64022;53.652;9.792;2023-10-13T07:32:38;22.60;67.40
30244;DHT22;64022;53.652;9.792;2023-10-13T07:35:16;22.60;67.40
30244;DHT22;64022;53.652;9.792;2023-10-13T07:37:45;22.60;67.40
30244;DHT22;64022;53.652;9.792;2023-10-13T07:40:14;22.60;67.40
30244;DHT22;64022;53.652;9.792;2023-10-13T07:42:55;22.60;67.40
30244;DHT22;64022;53.652;9.792;2023-10-13T07:45:28;22.60;67.40
30244;DHT22;64022;53.652;9.792;2023-10-13T07:48:07;22.60;67.40
30244;DHT22;64022;53.652;9.792;2023-10-13T07:53:31;22.60;67.40
30244;DHT22;64022;53.652;9.792;2023-10-13T07:56:00;22.60;67.50
30244;DHT22;64022;53.652;9.792;2023-10-13T07:58:31;22.60;67.50
30244;DHT22;64022;53.652;9.792;2023-10-13T08:00:57;22.70;67.50
30244;DHT22;64022;53.652;9.792;2023-10-13T08:03:33;22.70;67.60
30244;DHT22;64022;53.652;9.792;2023-10-13T08:06:12;22.60;67.50
30244;DHT22;64022;53.652;9.792;2023-10-13T08:08:38;22.70;67.60
30244;DHT22;64022;53.652;9.792;2023-10-13T08:11:04;22.70;67.60
30244;DHT22;64022;53.652;9.792;2023-10-13T08:13:54;22.70;67.60
30244;DHT22;64022;53.652;9.792;2023-10-13T08:16:24;22.70;67.70
30244;DHT22;64022;53.652;9.792;2023-10-13T08:18:55;22.70;67.70
30244;DHT22;64022;53.652;9.792;2023-10-13T08:21:21;22.70;67.70
30244;DHT22;64022;53.652;9.792;2023-10-13T08:23:50;22.70;67.70
30244;DHT22;64022;53.652;9.792;2023-10-13T08:26:21;22.70;67.70
30244;DHT22;64022;53.652;9.792;2023-10-13T08:29:05;22.70;67.70
30244;DHT22;64022;53.652;9.792;2023-10-13T08:31:57;22.70;67.70
30244;DHT22;64022;53.652;9.792;2023-10-13T08:34:41;22.60;67.70
30244;DHT22;64022;53.652;9.792;2023-10-13T08:37:10;22.70;67.70
30244;DHT22;64022;53.652;9.792;2023-10-13T08:39:58;22.70;67.70
30244;DHT22;64022;53.652;9.792;2023-10-13T08:42:28;22.70;67.70
30244;DHT22;64022;53.652;9.792;2023-10-13T08:45:12;22.70;67.80
30244;DHT22;64022;53.652;9.792;2023-10-13T08:50:51;22.70;67.80
30244;DHT22;64022;53.652;9.792;2023-10-13T08:53:17;22.70;67.80
30244;DHT22;64022;53.652;9.792;2023-10-13T08:56:00;22.70;67.80
30244;DHT22;64022;53.652;9.792;2023-10-13T08:58:45;22.70;67.90
30244;DHT22;64022;53.652;9.792;2023-10-13T09:01:20;22.70;67.90
30244;DHT22;64022;53.652;9.792;2023-10-13T09:04:05;22.70;67.90
30244;DHT22;64022;53.652;9.792;2023-10-13T09:07:02;22.70;67.90
30244;DHT22;64022;53.652;9.792;2023-10-13T09:09:31;22.70;67.90
30244;DHT22;64022;53.652;9.792;2023-10-13T09:12:00;22.70;67.90
30244;DHT22;64022;53.652;9.792;2023-10-13T09:14:38;22.70;67.90
30244;DHT22;64022;53.652;9.792;2023-10-13T09:17:08;22.70;67.90
30244;DHT22;64022;53.652;9.792;2023-10-13T09:19:44;22.70;68.00
30244;DHT22;64022;53.652;9.792;2023-10-13T09:22:25;22.70;68.00
30244;DHT22;64022;53.652;9.792;2023-10-13T09:25:01;22.70;68.00
30244;DHT22;64022;53.652;9.792;2023-10-13T09:27:27;22.70;68.00
30244;DHT22;64022;53.652;9.792;2023-10-13T09:29:59;22.70;68.00
30244;DHT22;64022;53.652;9.792;2023-10-13T09:32:35;22.70;68.10
30244;DHT22;64022;53.652;9.792;2023-10-13T09:35:16;22.70;68.00
30244;DHT22;64022;53.652;9.792;2023-10-13T09:37:43;22.70;68.10
30244;DHT22;64022;53.652;9.792;2023-10-13T09:40:13;22.80;68.10
30244;DHT22;64022;53.652;9.792;2023-10-13T09:43:02;22.80;68.10
30244;DHT22;64022;53.652;9.792;2023-10-13T09:45:33;22.70;68.10
30244;DHT22;64022;53.652;9.792;2023-10-13T09:48:04;22.70;68.10
30244;DHT22;64022;53.652;9.792;2023-10-13T09:50:42;22.70;68.10
30244;DHT22;64022;53.652;9.792;2023-10-13T09:53:12;22.70;68.10
30244;DHT22;64022;53.652;9.792;2023-10-13T09:55:49;22.70;68.10
30244;DHT22;64022;53.652;9.792;2023-10-13T09:58:16;22.80;68.20
30244;DHT22;64022;53.652;9.792;2023-10-13T10:00:54;22.70;68.20
30244;DHT22;64022;53.652;9.792;2023-10-13T10:03:23;22.80;68.20
30244;DHT22;64022;53.652;9.792;2023-10-13T10:06:01;22.70;68.10
30244;DHT22;64022;53.652;9.792;2023-10-13T10:08:39;22.70;68.20
30244;DHT22;64022;53.652;9.792;2023-10-13T10:16:37;22.80;68.30
30244;DHT22;64022;53.652;9.792;2023-10-13T10:19:07;22.70;68.20
30244;DHT22;64022;53.652;9.792;2023-10-13T10:21:35;22.70;68.20
30244;DHT22;64022;53.652;9.792;2023-10-13T10:24:01;22.80;68.30
30244;DHT22;64022;53.652;9.792;2023-10-13T10:26:32;22.70;68.20
30244;DHT22;64022;53.652;9.792;2023-10-13T10:28:58;22.80;68.30
30244;DHT22;64022;53.652;9.792;2023-10-13T10:31:32;22.80;68.30
30244;DHT22;64022;53.652;9.792;2023-10-13T10:34:10;22.80;68.30
30244;DHT22;64022;53.652;9.792;2023-10-13T10:36:35;22.80;68.40
30244;DHT22;64022;53.652;9.792;2023-10-13T10:39:01;22.80;68.40
30244;DHT22;64022;53.652;9.792;2023-10-13T10:41:30;22.80;68.40
30244;DHT22;64022;53.652;9.792;2023-10-13T10:44:16;22.80;68.40
30244;DHT22;64022;53.652;9.792;2023-10-13T10:46:42;22.80;68.40
30244;DHT22;64022;53.652;9.792;2023-10-13T10:49:19;22.80;68.50
30244;DHT22;64022;53.652;9.792;2023-10-13T10:51:57;22.80;68.40
30244;DHT22;64022;53.652;9.792;2023-10-13T10:54:23;22.80;68.40
30244;DHT22;64022;53.652;9.792;2023-10-13T10:56:55;22.80;68.50
30244;DHT22;64022;53.652;9.792;2023-10-13T10:59:21;22.80;69.00
30244;DHT22;64022;53.652;9.792;2023-10-13T11:01:50;22.80;68.50
30244;DHT22;64022;53.652;9.792;2023-10-13T11:04:18;22.80;68.50
30244;DHT22;64022;53.652;9.792;2023-10-13T11:09:24;22.80;68.50
30244;DHT22;64022;53.652;9.792;2023-10-13T11:11:53;22.80;68.50
30244;DHT22;64022;53.652;9.792;2023-10-13T11:14:22;22.80;68.60
30244;DHT22;64022;53.652;9.792;2023-10-13T11:16:51;22.80;68.60
30244;DHT22;64022;53.652;9.792;2023-10-13T11:19:17;22.80;68.60
30244;DHT22;64022;53.652;9.792;2023-10-13T11:21:46;22.80;68.60
30244;DHT22;64022;53.652;9.792;2023-10-13T11:24:13;22.80;68.60
30244;DHT22;64022;53.652;9.792;2023-10-13T11:26:38;22.80;68.60
30244;DHT22;64022;53.652;9.792;2023-10-13T11:29:17;22.80;68.60
30244;DHT22;64022;53.652;9.792;2023-10-13T11:31:46;22.90;68.70
30244;DHT22;64022;53.652;9.792;2023-10-13T11:34:12;22.80;68.70
30244;DHT22;64022;53.652;9.792;2023-10-13T11:36:42;22.80;68.70
30244;DHT22;64022;53.652;9.792;2023-10-13T11:39:07;22.80;68.70
30244;DHT22;64022;53.652;9.792;2023-10-13T11:41:33;22.80;68.70
30244;DHT22;64022;53.652;9.792;2023-10-13T11:44:10;22.80;68.70
30244;DHT22;64022;53.652;9.792;2023-10-13T11:46:49;22.80;68.70
30244;DHT22;64022;53.652;9.792;2023-10-13T11:49:42;22.90;68.70
30244;DHT22;64022;53.652;9.792;2023-10-13T11:52:07;22.80;68.80
30244;DHT22;64022;53.652;9.792;2023-10-13T11:54:42;22.80;68.80
30244;DHT22;64022;53.652;9.792;2023-10-13T11:57:08;22.80;68.80
30244;DHT22;64022;53.652;9.792;2023-10-13T11:59:34;22.90;68.90
30244;DHT22;64022;53.652;9.792;2023-10-13T12:02:02;22.90;68.90
30244;DHT22;64022;53.652;9.792;2023-10-13T12:04:46;22.90;68.90
30244;DHT22;64022;53.652;9.792;2023-10-13T12:07:23;22.90;68.90
30244;DHT22;64022;53.652;9.792;2023-10-13T12:09:49;22.90;68.90
30244;DHT22;64022;53.652;9.792;2023-10-13T12:12:24;22.90;68.90
30244;DHT22;64022;53.652;9.792;2023-10-13T12:14:49;22.90;68.90
30244;DHT22;64022;53.652;9.792;2023-10-13T12:17:18;22.90;68.90
30244;DHT22;64022;53.652;9.792;2023-10-13T12:19:53;22.90;69.00
30244;DHT22;64022;53.652;9.792;2023-10-13T12:22:19;22.90;69.00
30244;DHT22;64022;53.652;9.792;2023-10-13T12:24:54;22.90;69.00
30244;DHT22;64022;53.652;9.792;2023-10-13T12:27:19;22.90;69.00
30244;DHT22;64022;53.652;9.792;2023-10-13T12:29:46;22.90;69.00
30244;DHT22;64022;53.652;9.792;2023-10-13T12:32:12;22.90;69.00
30244;DHT22;64022;53.652;9.792;2023-10-13T12:34:39;22.90;69.10
30244;DHT22;64022;53.652;9.792;2023-10-13T12:37:41;22.90;69.10
30244;DHT22;64022;53.652;9.792;2023-10-13T12:40:08;22.90;69.10
30244;DHT22;64022;53.652;9.792;2023-10-13T12:42:52;22.90;69.10
30244;DHT22;64022;53.652;9.792;2023-10-13T12:45:40;22.90;69.10
30244;DHT22;64022;53.652;9.792;2023-10-13T12:48:24;22.90;69.10
30244;DHT22;64022;53.652;9.792;2023-10-13T12:51:08;23.00;69.20
30244;DHT22;64022;53.652;9.792;2023-10-13T12:53:50;22.90;69.20
30244;DHT22;64022;53.652;9.792;2023-10-13T12:56:16;22.90;69.20
30244;DHT22;64022;53.652;9.792;2023-10-13T12:58:42;22.90;69.20
30244;DHT22;64022;53.652;9.792;2023-10-13T13:01:26;22.90;69.20
30244;DHT22;64022;53.652;9.792;2023-10-13T13:03:58;22.90;69.30
30244;DHT22;64022;53.652;9.792;2023-10-13T13:06:25;22.90;69.30
30244;DHT22;64022;53.652;9.792;2023-10-13T13:08:54;22.90;69.30
30244;DHT22;64022;53.652;9.792;2023-10-13T13:11:20;22.90;69.30
30244;DHT22;64022;53.652;9.792;2023-10-13T13:13:46;22.90;69.30
30244;DHT22;64022;53.652;9.792;2023-10-13T13:16:12;22.90;69.40
30244;DHT22;64022;53.652;9.792;2023-10-13T13:18:37;22.90;69.40
30244;DHT22;64022;53.652;9.792;2023-10-13T13:21:03;23.00;69.50
30244;DHT22;64022;53.652;9.792;2023-10-13T13:23:31;22.90;69.40
30244;DHT22;64022;53.652;9.792;2023-10-13T13:25:57;22.90;69.40
30244;DHT22;64022;53.652;9.792;2023-10-13T13:28:23;23.00;69.50
30244;DHT22;64022;53.652;9.792;2023-10-13T13:30:49;22.90;69.40
30244;DHT22;64022;53.652;9.792;2023-10-13T13:33:19;22.90;69.40
30244;DHT22;64022;53.652;9.792;2023-10-13T13:35:49;22.90;69.50
30244;DHT22;64022;53.652;9.792;2023-10-13T13:38:14;22.90;69.50
30244;DHT22;64022;53.652;9.792;2023-10-13T13:40:48;23.00;69.50
30244;DHT22;64022;53.652;9.792;2023-10-13T13:43:19;23.00;69.50
30244;DHT22;64022;53.652;9.792;2023-10-13T13:45:59;23.00;69.60
30244;DHT22;64022;53.652;9.792;2023-10-13T13:48:27;23.00;69.60
30244;DHT22;64022;53.652;9.792;2023-10-13T13:50:53;23.00;69.60
30244;DHT22;64022;53.652;9.792;2023-10-13T13:53:29;23.00;69.70
30244;DHT22;64022;53.652;9.792;2023-10-13T13:56:01;23.00;69.70
30244;DHT22;64022;53.652;9.792;2023-10-13T13:58:26;23.00;69.70
30244;DHT22;64022;53.652;9.792;2023-10-13T14:00:52;23.00;69.70
30244;DHT22;64022;53.652;9.792;2023-10-13T14:03:23;23.00;69.70
30244;DHT22;64022;53.652;9.792;2023-10-13T14:06:00;23.00;69.70
30244;DHT22;64022;53.652;9.792;2023-10-13T14:08:26;23.00;69.70
30244;DHT22;64022;53.652;9.792;2023-10-13T14:10:53;23.00;69.70
30244;DHT22;64022;53.652;9.792;2023-10-13T14:13:41;23.00;69.70
30244;DHT22;64022;53.652;9.792;2023-10-13T14:16:17;23.00;69.70
30244;DHT22;64022;53.652;9.792;2023-10-13T14:18:47;23.00;69.80
30244;DHT22;64022;53.652;9.792;2023-10-13T14:21:13;23.00;69.80
30244;DHT22;64022;53.652;9.792;2023-10-13T14:23:45;23.00;69.80
30244;DHT22;64022;53.652;9.792;2023-10-13T14:26:14;23.00;69.80
30244;DHT22;64022;53.652;9.792;2023-10-13T14:28:40;23.00;69.80
30244;DHT22;64022;53.652;9.792;2023-10-13T14:31:17;23.00;69.80
30244;DHT22;64022;53.652;9.792;2023-10-13T14:33:45;23.00;69.80
30244;DHT22;64022;53.652;9.792;2023-10-13T14:36:11;23.00;69.80
30244;DHT22;64022;53.652;9.792;2023-10-13T14:38:37;23.00;69.90
30244;DHT22;64022;53.652;9.792;2023-10-13T14:41:02;23.00;69.90
30244;DHT22;64022;53.652;9.792;2023-10-13T14:43:28;23.00;69.90
30244;DHT22;64022;53.652;9.792;2023-10-13T14:45:53;23.00;69.90
30244;DHT22;64022;53.652;9.792;2023-10-13T14:48:19;23.00;69.90
30244;DHT22;64022;53.652;9.792;2023-10-13T14:50:44;23.10;70.00
30244;DHT22;64022;53.652;9.792;2023-10-13T14:53:10;23.00;69.90
30244;DHT22;64022;53.652;9.792;2023-10-13T14:55:36;23.00;69.90
30244;DHT22;64022;53.652;9.792;2023-10-13T14:58:04;23.00;69.90
30244;DHT22;64022;53.652;9.792;2023-10-13T15:00:32;23.10;70.00
30244;DHT22;64022;53.652;9.792;2023-10-13T15:02:58;23.10;70.00
30244;DHT22;64022;53.652;9.792;2023-10-13T15:05:26;23.10;70.00
30244;DHT22;64022;53.652;9.792;2023-10-13T15:07:55;23.00;70.00
30244;DHT22;64022;53.652;9.792;2023-10-13T15:10:21;23.00;70.00
30244;DHT22;64022;53.652;9.792;2023-10-13T15:12:46;23.00;70.00
30244;DHT22;64022;53.652;9.792;2023-10-13T15:15:14;23.00;70.00
30244;DHT22;64022;53.652;9.792;2023-10-13T15:17:42;23.10;70.10
30244;DHT22;64022;53.652;9.792;2023-10-13T15:20:07;23.10;70.10
30244;DHT22;64022;53.652;9.792;2023-10-13T15:22:36;23.00;70.00
30244;DHT22;64022;53.652;9.792;2023-10-13T15:25:04;23.00;70.00
30244;DHT22;64022;53.652;9.792;2023-10-13T15:27:48;23.10;70.10
30244;DHT22;64022;53.652;9.792;2023-10-13T15:30:23;23.00;70.00
30244;DHT22;64022;53.652;9.792;2023-10-13T15:32:51;23.00;70.10
30244;DHT22;64022;53.652;9.792;2023-10-13T15:35:18;23.00;70.10
30244;DHT22;64022;53.652;9.792;2023-10-13T15:37:44;23.10;70.10
30244;DHT22;64022;53.652;9.792;2023-10-13T15:40:13;23.10;70.10
30244;DHT22;64022;53.652;9.792;2023-10-13T15:42:41;23.10;70.20
30244;DHT22;64022;53.652;9.792;2023-10-13T15:45:07;23.10;70.20
30244;DHT22;64022;53.652;9.792;2023-10-13T15:47:45;23.10;70.20
30244;DHT22;64022;53.652;9.792;2023-10-13T15:50:14;23.10;70.20
30244;DHT22;64022;53.652;9.792;2023-10-13T15:52:46;23.10;70.20
30244;DHT22;64022;53.652;9.792;2023-10-13T15:55:12;23.10;70.20
30244;DHT22;64022;53.652;9.792;2023-10-13T15:57:39;23.10;70.20
30244;DHT22;64022;53.652;9.792;2023-10-13T16:00:04;23.10;70.70
30244;DHT22;64022;53.652;9.792;2023-10-13T16:02:51;23.10;70.20
30244;DHT22;64022;53.652;9.792;2023-10-13T16:05:17;23.10;70.20
30244;DHT22;64022;53.652;9.792;2023-10-13T16:07:43;23.10;70.20
30244;DHT22;64022;53.652;9.792;2023-10-13T16:10:08;23.10;70.30
30244;DHT22;64022;53.652;9.792;2023-10-13T16:12:37;23.10;70.30
30244;DHT22;64022;53.652;9.792;2023-10-13T16:15:02;23.10;70.30
30244;DHT22;64022;53.652;9.792;2023-10-13T16:17:31;23.10;70.30
30244;DHT22;64022;53.652;9.792;2023-10-13T16:19:56;23.10;70.40